sensor_id;sensor_type;location;lat;lon;timestamp;temperature;humidity
19538;DHT22;9914;51.008;4.300;2023-06-10T00:00:25;24.00;99.90
19538;DHT22;9914;51.008;4.300;2023-06-10T00:02:51;23.90;99.90
19538;DHT22;9914;51.008;4.300;2023-06-10T00:05:17;23.90;99.90
19538;DHT22;9914;51.008;4.300;2023-06-10T00:07:44;23.80;99.90
19538;DHT22;9914;51.008;4.300;2023-06-10T00:10:12;23.70;99.90
19538;DHT22;9914;51.008;4.300;2023-06-10T00:12:39;23.70;99.90
19538;DHT22;9914;51.008;4.300;2023-06-10T00:15:06;23.60;99.90
19538;DHT22;9914;51.008;4.300;2023-06-10T00:17:32;23.70;99.90
19538;DHT22;9914;51.008;4.300;2023-06-10T00:19:58;23.60;99.90
19538;DHT22;9914;51.008;4.300;2023-06-10T00:22:24;23.60;99.90
19538;DHT22;9914;51.008;4.300;2023-06-10T00:24:55;23.60;99.90
19538;DHT22;9914;51.008;4.300;2023-06-10T00:27:21;23.50;99.90
19538;DHT22;9914;51.008;4.300;2023-06-10T00:29:46;23.30;99.90
19538;DHT22;9914;51.008;4.300;2023-06-10T00:32:12;23.20;99.90
19538;DHT22;9914;51.008;4.300;2023-06-10T00:34:38;23.20;99.90
19538;DHT22;9914;51.008;4.300;2023-06-10T00:37:03;23.10;99.90
19538;DHT22;9914;51.008;4.300;2023-06-10T00:39:29;23.10;99.90
19538;DHT22;9914;51.008;4.300;2023-06-10T00:41:54;23.10;99.90
19538;DHT22;9914;51.008;4.300;2023-06-10T00:44:20;23.20;99.90
19538;DHT22;9914;51.008;4.300;2023-06-10T00:46:46;23.30;99.90
19538;DHT22;9914;51.008;4.300;2023-06-10T00:49:12;23.30;99.90
19538;DHT22;9914;51.008;4.300;2023-06-10T00:51:38;23.10;99.90
19538;DHT22;9914;51.008;4.300;2023-06-10T00:54:04;23.10;99.90
19538;DHT22;9914;51.008;4.300;2023-06-10T00:56:31;23.10;99.90
19538;DHT22;9914;51.008;4.300;2023-06-10T00:58:58;23.00;99.90
19538;DHT22;9914;51.008;4.300;2023-06-10T01:01:23;22.90;99.90
19538;DHT22;9914;51.008;4.300;2023-06-10T01:03:50;22.90;99.90
19538;DHT22;9914;51.008;4.300;2023-06-10T01:09:02;22.90;99.90
19538;DHT22;9914;51.008;4.300;2023-06-10T01:12:04;22.70;99.90
19538;DHT22;9914;51.008;4.300;2023-06-10T01:14:36;22.80;99.90
19538;DHT22;9914;51.008;4.300;2023-06-10T01:17:02;22.70;99.90
19538;DHT22;9914;51.008;4.300;2023-06-10T01:19:28;22.60;99.90
19538;DHT22;9914;51.008;4.300;2023-06-10T01:21:56;22.70;99.90
19538;DHT22;9914;51.008;4.300;2023-06-10T01:24:26;22.70;99.90
19538;DHT22;9914;51.008;4.300;2023-06-10T01:26:53;22.60;99.90
19538;DHT22;9914;51.008;4.300;2023-06-10T01:29:50;22.50;99.90
19538;DHT22;9914;51.008;4.300;2023-06-10T01:32:27;22.50;99.90
19538;DHT22;9914;51.008;4.300;2023-06-10T01:34:55;22.40;99.90
19538;DHT22;9914;51.008;4.300;2023-06-10T01:37:24;22.30;99.90
19538;DHT22;9914;51.008;4.300;2023-06-10T01:39:51;22.40;99.90
19538;DHT22;9914;51.008;4.300;2023-06-10T01:42:17;22.20;99.90
19538;DHT22;9914;51.008;4.300;2023-06-10T01:44:43;22.20;99.90
19538;DHT22;9914;51.008;4.300;2023-06-10T01:47:08;22.10;99.90
19538;DHT22;9914;51.008;4.300;2023-06-10T01:49:34;22.10;99.90
19538;DHT22;9914;51.008;4.300;2023-06-10T01:52:00;22.00;99.90
19538;DHT22;9914;51.008;4.300;2023-06-10T01:54:26;22.20;99.90
19538;DHT22;9914;51.008;4.300;2023-06-10T01:56:51;22.10;99.90
19538;DHT22;9914;51.008;4.300;2023-06-10T01:59:17;22.00;99.90
19538;DHT22;9914;51.008;4.300;2023-06-10T02:01:42;22.10;99.90
19538;DHT22;9914;51.008;4.300;2023-06-10T02:04:08;22.10;99.90
19538;DHT22;9914;51.008;4.300;2023-06-10T02:06:34;22.00;99.90
19538;DHT22;9914;51.008;4.300;2023-06-10T02:09:00;21.80;99.90
19538;DHT22;9914;51.008;4.300;2023-06-10T02:11:26;21.70;99.90
19538;DHT22;9914;51.008;4.300;2023-06-10T02:13:52;21.60;99.90
19538;DHT22;9914;51.008;4.300;2023-06-10T02:16:17;21.70;99.90
19538;DHT22;9914;51.008;4.300;2023-06-10T02:18:44;21.80;99.90
19538;DHT22;9914;51.008;4.300;2023-06-10T02:21:10;21.80;99.90
19538;DHT22;9914;51.008;4.300;2023-06-10T02:23:35;21.80;99.90
19538;DHT22;9914;51.008;4.300;2023-06-10T02:26:01;21.80;99.90
19538;DHT22;9914;51.008;4.300;2023-06-10T02:28:27;21.80;99.90
19538;DHT22;9914;51.008;4.300;2023-06-10T02:30:53;21.70;99.90
19538;DHT22;9914;51.008;4.300;2023-06-10T02:33:18;21.70;99.90
19538;DHT22;9914;51.008;4.300;2023-06-10T02:35:45;21.70;99.90
19538;DHT22;9914;51.008;4.300;2023-06-10T02:38:11;21.70;99.90
19538;DHT22;9914;51.008;4.300;2023-06-10T02:40:36;21.60;99.90
19538;DHT22;9914;51.008;4.300;2023-06-10T02:43:02;21.60;99.90
19538;DHT22;9914;51.008;4.300;2023-06-10T02:45:27;21.60;99.90
19538;DHT22;9914;51.008;4.300;2023-06-10T02:47:53;21.60;99.90
19538;DHT22;9914;51.008;4.300;2023-06-10T02:50:19;21.60;99.90
19538;DHT22;9914;51.008;4.300;2023-06-10T02:52:45;21.50;99.90
19538;DHT22;9914;51.008;4.300;2023-06-10T02:55:10;21.40;99.90
19538;DHT22;9914;51.008;4.300;2023-06-10T02:57:36;21.30;99.90
19538;DHT22;9914;51.008;4.300;2023-06-10T03:00:02;21.30;99.90
19538;DHT22;9914;51.008;4.300;2023-06-10T03:02:34;21.40;99.90
19538;DHT22;9914;51.008;4.300;2023-06-10T03:05:02;21.40;99.90
19538;DHT22;9914;51.008;4.300;2023-06-10T03:07:28;21.30;99.90
19538;DHT22;9914;51.008;4.300;2023-06-10T03:09:53;21.40;99.90
19538;DHT22;9914;51.008;4.300;2023-06-10T03:12:19;21.50;99.90
19538;DHT22;9914;51.008;4.300;2023-06-10T03:14:44;21.40;99.90
19538;DHT22;9914;51.008;4.300;2023-06-10T03:17:10;21.30;99.90
19538;DHT22;9914;51.008;4.300;2023-06-10T03:19:36;21.30;99.90
19538;DHT22;9914;51.008;4.300;2023-06-10T03:22:14;21.20;99.90
19538;DHT22;9914;51.008;4.300;2023-06-10T03:24:40;21.10;99.90
19538;DHT22;9914;51.008;4.300;2023-06-10T03:27:10;21.10;99.90
19538;DHT22;9914;51.008;4.300;2023-06-10T03:29:37;21.20;99.90
19538;DHT22;9914;51.008;4.300;2023-06-10T03:32:03;21.20;99.90
19538;DHT22;9914;51.008;4.300;2023-06-10T03:34:29;21.10;99.90
19538;DHT22;9914;51.008;4.300;2023-06-10T03:36:55;21.10;99.90
19538;DHT22;9914;51.008;4.300;2023-06-10T03:39:21;21.10;99.90
19538;DHT22;9914;51.008;4.300;2023-06-10T03:41:49;21.00;99.90
19538;DHT22;9914;51.008;4.300;2023-06-10T03:44:14;21.10;99.90
19538;DHT22;9914;51.008;4.300;2023-06-10T03:46:40;21.10;99.90
19538;DHT22;9914;51.008;4.300;2023-06-10T03:49:06;21.00;99.90
19538;DHT22;9914;51.008;4.300;2023-06-10T03:51:32;21.00;99.90
19538;DHT22;9914;51.008;4.300;2023-06-10T03:53:57;21.10;99.90
19538;DHT22;9914;51.008;4.300;2023-06-10T03:56:23;21.10;99.90
19538;DHT22;9914;51.008;4.300;2023-06-10T03:58:48;21.00;99.90
19538;DHT22;9914;51.008;4.300;2023-06-10T04:01:14;21.00;99.90
19538;DHT22;9914;51.008;4.300;2023-06-10T04:03:40;21.10;99.90
19538;DHT22;9914;51.008;4.300;2023-06-10T04:06:07;21.20;99.90
19538;DHT22;9914;51.008;4.300;2023-06-10T04:08:33;21.00;99.90
19538;DHT22;9914;51.008;4.300;2023-06-10T04:10:59;21.00;99.90
19538;DHT22;9914;51.008;4.300;2023-06-10T04:13:24;20.90;99.90
19538;DHT22;9914;51.008;4.300;2023-06-10T04:15:50;20.90;99.90
19538;DHT22;9914;51.008;4.300;2023-06-10T04:18:16;21.00;99.90
19538;DHT22;9914;51.008;4.300;2023-06-10T04:20:42;21.00;99.90
19538;DHT22;9914;51.008;4.300;2023-06-10T04:23:07;21.10;99.90
19538;DHT22;9914;51.008;4.300;2023-06-10T04:25:33;21.20;99.90
19538;DHT22;9914;51.008;4.300;2023-06-10T04:27:59;21.30;99.90
19538;DHT22;9914;51.008;4.300;2023-06-10T04:30:24;21.30;99.90
19538;DHT22;9914;51.008;4.300;2023-06-10T04:32:50;21.30;99.90
19538;DHT22;9914;51.008;4.300;2023-06-10T04:35:16;21.30;99.90
19538;DHT22;9914;51.008;4.300;2023-06-10T04:37:41;21.20;99.90
19538;DHT22;9914;51.008;4.300;2023-06-10T04:40:08;21.20;99.90
19538;DHT22;9914;51.008;4.300;2023-06-10T04:42:34;21.30;99.90
19538;DHT22;9914;51.008;4.300;2023-06-10T04:45:00;21.40;99.90
19538;DHT22;9914;51.008;4.300;2023-06-10T04:47:26;21.40;99.90
19538;DHT22;9914;51.008;4.300;2023-06-10T04:49:52;21.40;99.90
19538;DHT22;9914;51.008;4.300;2023-06-10T04:52:17;21.50;99.90
19538;DHT22;9914;51.008;4.300;2023-06-10T04:54:43;21.50;99.90
19538;DHT22;9914;51.008;4.300;2023-06-10T04:57:09;21.50;99.90
19538;DHT22;9914;51.008;4.300;2023-06-10T04:59:37;21.50;99.90
19538;DHT22;9914;51.008;4.300;2023-06-10T05:02:04;21.60;99.90
19538;DHT22;9914;51.008;4.300;2023-06-10T05:04:30;21.50;99.90
19538;DHT22;9914;51.008;4.300;2023-06-10T05:06:55;21.50;99.90
19538;DHT22;9914;51.008;4.300;2023-06-10T05:09:21;21.80;99.90
19538;DHT22;9914;51.008;4.300;2023-06-10T05:11:47;21.90;99.90
19538;DHT22;9914;51.008;4.300;2023-06-10T05:14:12;21.80;99.90
19538;DHT22;9914;51.008;4.300;2023-06-10T05:16:38;21.90;99.90
19538;DHT22;9914;51.008;4.300;2023-06-10T05:19:04;22.00;99.90
19538;DHT22;9914;51.008;4.300;2023-06-10T05:21:30;21.90;99.90
19538;DHT22;9914;51.008;4.300;2023-06-10T05:23:56;22.00;99.90
19538;DHT22;9914;51.008;4.300;2023-06-10T05:26:21;22.10;99.90
19538;DHT22;9914;51.008;4.300;2023-06-10T05:28:47;22.20;99.90
19538;DHT22;9914;51.008;4.300;2023-06-10T05:31:13;22.10;99.90
19538;DHT22;9914;51.008;4.300;2023-06-10T05:33:39;22.10;99.90
19538;DHT22;9914;51.008;4.300;2023-06-10T05:36:05;22.10;99.90
19538;DHT22;9914;51.008;4.300;2023-06-10T05:38:31;22.20;99.90
19538;DHT22;9914;51.008;4.300;2023-06-10T05:40:56;22.20;99.90
19538;DHT22;9914;51.008;4.300;2023-06-10T05:43:24;22.40;99.90
19538;DHT22;9914;51.008;4.300;2023-06-10T05:45:49;22.40;99.90
19538;DHT22;9914;51.008;4.300;2023-06-10T05:48:15;22.50;99.90
19538;DHT22;9914;51.008;4.300;2023-06-10T05:50:41;22.60;99.90
19538;DHT22;9914;51.008;4.300;2023-06-10T05:53:08;22.70;99.90
19538;DHT22;9914;51.008;4.300;2023-06-10T05:55:43;22.70;99.90
19538;DHT22;9914;51.008;4.300;2023-06-10T05:58:10;22.80;99.90
19538;DHT22;9914;51.008;4.300;2023-06-10T06:00:38;22.90;99.90
19538;DHT22;9914;51.008;4.300;2023-06-10T06:03:03;22.90;99.90
19538;DHT22;9914;51.008;4.300;2023-06-10T06:05:29;22.90;99.90
19538;DHT22;9914;51.008;4.300;2023-06-10T06:08:04;23.00;99.90
19538;DHT22;9914;51.008;4.300;2023-06-10T06:10:31;23.20;99.90
19538;DHT22;9914;51.008;4.300;2023-06-10T06:12:57;23.30;99.90
19538;DHT22;9914;51.008;4.300;2023-06-10T06:15:23;23.20;99.90
19538;DHT22;9914;51.008;4.300;2023-06-10T06:17:48;23.40;99.90
19538;DHT22;9914;51.008;4.300;2023-06-10T06:20:14;23.60;99.90
19538;DHT22;9914;51.008;4.300;2023-06-10T06:22:40;23.70;99.90
19538;DHT22;9914;51.008;4.300;2023-06-10T06:25:06;23.90;99.90
19538;DHT22;9914;51.008;4.300;2023-06-10T06:27:31;24.00;99.90
19538;DHT22;9914;51.008;4.300;2023-06-10T06:29:57;24.00;99.90
19538;DHT22;9914;51.008;4.300;2023-06-10T06:32:23;24.00;99.90
19538;DHT22;9914;51.008;4.300;2023-06-10T06:34:50;24.10;99.90
19538;DHT22;9914;51.008;4.300;2023-06-10T06:37:22;24.10;99.90
19538;DHT22;9914;51.008;4.300;2023-06-10T06:39:52;24.10;99.90
19538;DHT22;9914;51.008;4.300;2023-06-10T06:42:18;24.10;99.90
19538;DHT22;9914;51.008;4.300;2023-06-10T06:44:44;24.00;99.90
19538;DHT22;9914;51.008;4.300;2023-06-10T06:47:10;24.10;99.90
19538;DHT22;9914;51.008;4.300;2023-06-10T06:49:36;24.30;99.90
19538;DHT22;9914;51.008;4.300;2023-06-10T06:52:02;24.40;99.90
19538;DHT22;9914;51.008;4.300;2023-06-10T06:54:27;24.60;99.90
19538;DHT22;9914;51.008;4.300;2023-06-10T06:56:53;24.90;99.90
19538;DHT22;9914;51.008;4.300;2023-06-10T06:59:19;25.00;99.90
19538;DHT22;9914;51.008;4.300;2023-06-10T07:01:45;25.20;99.90
19538;DHT22;9914;51.008;4.300;2023-06-10T07:04:11;25.20;99.90
19538;DHT22;9914;51.008;4.300;2023-06-10T07:06:37;25.20;99.90
19538;DHT22;9914;51.008;4.300;2023-06-10T07:09:04;25.20;99.90
19538;DHT22;9914;51.008;4.300;2023-06-10T07:11:30;25.20;99.90
19538;DHT22;9914;51.008;4.300;2023-06-10T07:13:56;25.20;99.90
19538;DHT22;9914;51.008;4.300;2023-06-10T07:16:22;25.30;99.90
19538;DHT22;9914;51.008;4.300;2023-06-10T07:18:47;25.40;99.90
19538;DHT22;9914;51.008;4.300;2023-06-10T07:21:13;25.60;99.90
19538;DHT22;9914;51.008;4.300;2023-06-10T07:23:42;25.70;99.90
19538;DHT22;9914;51.008;4.300;2023-06-10T07:26:08;25.70;99.90
19538;DHT22;9914;51.008;4.300;2023-06-10T07:28:36;25.90;99.90
19538;DHT22;9914;51.008;4.300;2023-06-10T07:31:03;26.00;99.90
19538;DHT22;9914;51.008;4.300;2023-06-10T07:33:28;25.90;99.90
19538;DHT22;9914;51.008;4.300;2023-06-10T07:35:54;26.00;99.90
19538;DHT22;9914;51.008;4.300;2023-06-10T07:38:20;26.00;99.90
19538;DHT22;9914;51.008;4.300;2023-06-10T07:40:46;26.10;99.90
19538;DHT22;9914;51.008;4.300;2023-06-10T07:43:12;26.20;99.90
19538;DHT22;9914;51.008;4.300;2023-06-10T07:45:40;26.50;99.90
19538;DHT22;9914;51.008;4.300;2023-06-10T07:48:05;26.70;99.90
19538;DHT22;9914;51.008;4.300;2023-06-10T07:50:31;26.90;99.90
19538;DHT22;9914;51.008;4.300;2023-06-10T07:52:56;27.00;99.90
19538;DHT22;9914;51.008;4.300;2023-06-10T07:55:22;27.10;99.90
19538;DHT22;9914;51.008;4.300;2023-06-10T07:57:48;27.40;99.90
19538;DHT22;9914;51.008;4.300;2023-06-10T08:00:14;27.50;99.90
19538;DHT22;9914;51.008;4.300;2023-06-10T08:02:39;27.70;99.90
19538;DHT22;9914;51.008;4.300;2023-06-10T08:05:05;27.90;99.90
19538;DHT22;9914;51.008;4.300;2023-06-10T08:07:31;27.80;99.90
19538;DHT22;9914;51.008;4.300;2023-06-10T08:09:57;27.80;99.90
19538;DHT22;9914;51.008;4.300;2023-06-10T08:12:23;27.80;99.90
19538;DHT22;9914;51.008;4.300;2023-06-10T08:14:48;27.80;99.90
19538;DHT22;9914;51.008;4.300;2023-06-10T08:17:14;27.90;99.90
19538;DHT22;9914;51.008;4.300;2023-06-10T08:19:39;28.00;99.90
19538;DHT22;9914;51.008;4.300;2023-06-10T08:22:05;28.20;99.90
19538;DHT22;9914;51.008;4.300;2023-06-10T08:24:31;28.20;99.90
19538;DHT22;9914;51.008;4.300;2023-06-10T08:26:56;27.90;99.90
19538;DHT22;9914;51.008;4.300;2023-06-10T08:29:23;28.00;99.90
19538;DHT22;9914;51.008;4.300;2023-06-10T08:31:48;28.10;99.90
19538;DHT22;9914;51.008;4.300;2023-06-10T08:34:14;28.30;99.90
19538;DHT22;9914;51.008;4.300;2023-06-10T08:36:40;28.40;99.90
19538;DHT22;9914;51.008;4.300;2023-06-10T08:39:06;28.40;99.90
19538;DHT22;9914;51.008;4.300;2023-06-10T08:41:35;28.60;99.90
19538;DHT22;9914;51.008;4.300;2023-06-10T08:44:19;28.70;99.90
19538;DHT22;9914;51.008;4.300;2023-06-10T08:46:48;29.00;99.90
19538;DHT22;9914;51.008;4.300;2023-06-10T08:49:18;29.20;99.90
19538;DHT22;9914;51.008;4.300;2023-06-10T08:51:50;29.40;99.90
19538;DHT22;9914;51.008;4.300;2023-06-10T08:54:19;29.40;99.90
19538;DHT22;9914;51.008;4.300;2023-06-10T08:56:49;29.50;99.90
19538;DHT22;9914;51.008;4.300;2023-06-10T08:59:15;29.60;99.90
19538;DHT22;9914;51.008;4.300;2023-06-10T09:01:43;29.70;99.90
19538;DHT22;9914;51.008;4.300;2023-06-10T09:04:09;29.70;99.90
19538;DHT22;9914;51.008;4.300;2023-06-10T09:06:35;29.80;99.90
19538;DHT22;9914;51.008;4.300;2023-06-10T09:09:02;29.90;99.90
19538;DHT22;9914;51.008;4.300;2023-06-10T09:11:28;29.70;99.90
19538;DHT22;9914;51.008;4.300;2023-06-10T09:13:54;30.00;99.90
19538;DHT22;9914;51.008;4.300;2023-06-10T09:16:19;30.10;99.90
19538;DHT22;9914;51.008;4.300;2023-06-10T09:18:45;30.30;99.90
19538;DHT22;9914;51.008;4.300;2023-06-10T09:21:11;30.50;99.90
19538;DHT22;9914;51.008;4.300;2023-06-10T09:23:37;30.50;99.90
19538;DHT22;9914;51.008;4.300;2023-06-10T09:26:08;30.40;99.90
19538;DHT22;9914;51.008;4.300;2023-06-10T09:28:34;30.70;99.90
19538;DHT22;9914;51.008;4.300;2023-06-10T09:31:06;30.90;99.90
19538;DHT22;9914;51.008;4.300;2023-06-10T09:33:38;31.10;99.90
19538;DHT22;9914;51.008;4.300;2023-06-10T09:36:05;31.10;99.90
19538;DHT22;9914;51.008;4.300;2023-06-10T09:38:32;31.10;99.90
19538;DHT22;9914;51.008;4.300;2023-06-10T09:40:58;31.20;99.90
19538;DHT22;9914;51.008;4.300;2023-06-10T09:43:47;31.20;99.90
19538;DHT22;9914;51.008;4.300;2023-06-10T09:46:18;31.20;99.80
19538;DHT22;9914;51.008;4.300;2023-06-10T09:48:45;31.30;99.10
19538;DHT22;9914;51.008;4.300;2023-06-10T09:51:12;31.30;99.50
19538;DHT22;9914;51.008;4.300;2023-06-10T09:53:38;31.30;99.90
19538;DHT22;9914;51.008;4.300;2023-06-10T09:56:04;31.20;99.50
19538;DHT22;9914;51.008;4.300;2023-06-10T09:58:37;31.20;99.10
19538;DHT22;9914;51.008;4.300;2023-06-10T10:01:10;31.50;99.10
19538;DHT22;9914;51.008;4.300;2023-06-10T10:03:46;31.50;98.80
19538;DHT22;9914;51.008;4.300;2023-06-10T10:06:13;31.60;98.00
19538;DHT22;9914;51.008;4.300;2023-06-10T10:08:39;31.70;98.00
19538;DHT22;9914;51.008;4.300;2023-06-10T10:11:05;31.80;97.90
19538;DHT22;9914;51.008;4.300;2023-06-10T10:13:33;31.90;97.50
19538;DHT22;9914;51.008;4.300;2023-06-10T10:16:04;32.20;96.70
19538;DHT22;9914;51.008;4.300;2023-06-10T10:18:32;32.10;96.30
19538;DHT22;9914;51.008;4.300;2023-06-10T10:21:07;32.00;95.80
19538;DHT22;9914;51.008;4.300;2023-06-10T10:24:02;31.90;95.90
19538;DHT22;9914;51.008;4.300;2023-06-10T10:26:31;32.20;95.80
19538;DHT22;9914;51.008;4.300;2023-06-10T10:29:19;32.30;95.80
19538;DHT22;9914;51.008;4.300;2023-06-10T10:31:47;32.30;95.80
19538;DHT22;9914;51.008;4.300;2023-06-10T10:34:24;32.30;95.00
19538;DHT22;9914;51.008;4.300;2023-06-10T10:36:51;32.20;95.20
19538;DHT22;9914;51.008;4.300;2023-06-10T10:39:18;32.10;94.80
19538;DHT22;9914;51.008;4.300;2023-06-10T10:41:44;32.30;94.50
19538;DHT22;9914;51.008;4.300;2023-06-10T10:44:11;32.30;93.90
19538;DHT22;9914;51.008;4.300;2023-06-10T10:46:44;32.00;93.80
19538;DHT22;9914;51.008;4.300;2023-06-10T10:49:12;31.90;93.30
19538;DHT22;9914;51.008;4.300;2023-06-10T10:51:54;32.00;93.90
19538;DHT22;9914;51.008;4.300;2023-06-10T10:54:31;32.10;94.40
19538;DHT22;9914;51.008;4.300;2023-06-10T10:57:13;32.20;94.60
19538;DHT22;9914;51.008;4.300;2023-06-10T10:59:59;32.20;94.30
19538;DHT22;9914;51.008;4.300;2023-06-10T11:02:35;32.40;94.40
19538;DHT22;9914;51.008;4.300;2023-06-10T11:05:02;32.30;94.30
19538;DHT22;9914;51.008;4.300;2023-06-10T11:07:30;32.50;93.70
19538;DHT22;9914;51.008;4.300;2023-06-10T11:10:01;32.50;93.50
19538;DHT22;9914;51.008;4.300;2023-06-10T11:12:41;32.30;93.10
19538;DHT22;9914;51.008;4.300;2023-06-10T11:15:07;32.00;93.50
19538;DHT22;9914;51.008;4.300;2023-06-10T11:17:33;32.00;93.60
19538;DHT22;9914;51.008;4.300;2023-06-10T11:19:59;32.10;93.40
19538;DHT22;9914;51.008;4.300;2023-06-10T11:22:25;32.50;92.80
19538;DHT22;9914;51.008;4.300;2023-06-10T11:24:51;32.40;92.40
19538;DHT22;9914;51.008;4.300;2023-06-10T11:27:24;32.50;92.60
19538;DHT22;9914;51.008;4.300;2023-06-10T11:32:31;32.80;92.40
19538;DHT22;9914;51.008;4.300;2023-06-10T11:34:58;32.70;92.30
19538;DHT22;9914;51.008;4.300;2023-06-10T11:37:24;32.80;92.00
19538;DHT22;9914;51.008;4.300;2023-06-10T11:39:55;32.80;91.30
19538;DHT22;9914;51.008;4.300;2023-06-10T11:42:24;33.00;91.60
19538;DHT22;9914;51.008;4.300;2023-06-10T11:44:52;33.00;91.50
19538;DHT22;9914;51.008;4.300;2023-06-10T11:47:19;32.90;91.80
19538;DHT22;9914;51.008;4.300;2023-06-10T11:49:46;33.10;91.90
19538;DHT22;9914;51.008;4.300;2023-06-10T11:52:12;33.30;91.50
19538;DHT22;9914;51.008;4.300;2023-06-10T11:54:38;33.50;91.20
19538;DHT22;9914;51.008;4.300;2023-06-10T11:57:04;33.70;91.00
19538;DHT22;9914;51.008;4.300;2023-06-10T11:59:30;34.00;90.90
19538;DHT22;9914;51.008;4.300;2023-06-10T12:01:56;33.60;90.90
19538;DHT22;9914;51.008;4.300;2023-06-10T12:04:22;33.50;90.90
19538;DHT22;9914;51.008;4.300;2023-06-10T12:06:52;33.20;90.80
19538;DHT22;9914;51.008;4.300;2023-06-10T12:09:20;33.00;90.40
19538;DHT22;9914;51.008;4.300;2023-06-10T12:11:50;33.10;90.50
19538;DHT22;9914;51.008;4.300;2023-06-10T12:14:16;33.30;91.00
19538;DHT22;9914;51.008;4.300;2023-06-10T12:16:48;33.40;90.30
19538;DHT22;9914;51.008;4.300;2023-06-10T12:19:15;33.40;90.00
19538;DHT22;9914;51.008;4.300;2023-06-10T12:21:40;33.30;89.80
19538;DHT22;9914;51.008;4.300;2023-06-10T12:24:10;33.40;90.20
19538;DHT22;9914;51.008;4.300;2023-06-10T12:26:43;33.60;89.50
19538;DHT22;9914;51.008;4.300;2023-06-10T12:31:56;33.80;88.60
19538;DHT22;9914;51.008;4.300;2023-06-10T12:34:34;34.10;88.90
19538;DHT22;9914;51.008;4.300;2023-06-10T12:37:05;34.10;88.20
19538;DHT22;9914;51.008;4.300;2023-06-10T12:39:34;34.40;88.30
19538;DHT22;9914;51.008;4.300;2023-06-10T12:42:00;34.50;87.30
19538;DHT22;9914;51.008;4.300;2023-06-10T12:44:38;34.70;86.70
19538;DHT22;9914;51.008;4.300;2023-06-10T12:47:13;34.70;86.10
19538;DHT22;9914;51.008;4.300;2023-06-10T12:49:40;34.70;86.10
19538;DHT22;9914;51.008;4.300;2023-06-10T12:52:06;34.70;86.40
19538;DHT22;9914;51.008;4.300;2023-06-10T12:54:32;34.60;85.90
19538;DHT22;9914;51.008;4.300;2023-06-10T12:56:58;34.40;86.80
19538;DHT22;9914;51.008;4.300;2023-06-10T12:59:24;34.30;87.00
19538;DHT22;9914;51.008;4.300;2023-06-10T13:01:51;34.10;86.90
19538;DHT22;9914;51.008;4.300;2023-06-10T13:04:17;33.90;87.10
19538;DHT22;9914;51.008;4.300;2023-06-10T13:06:44;34.20;86.80
19538;DHT22;9914;51.008;4.300;2023-06-10T13:09:10;34.30;86.90
19538;DHT22;9914;51.008;4.300;2023-06-10T13:11:36;34.30;85.40
19538;DHT22;9914;51.008;4.300;2023-06-10T13:14:02;34.60;86.50
19538;DHT22;9914;51.008;4.300;2023-06-10T13:16:30;34.70;85.00
19538;DHT22;9914;51.008;4.300;2023-06-10T13:18:56;35.00;84.60
19538;DHT22;9914;51.008;4.300;2023-06-10T13:21:21;34.90;84.00
19538;DHT22;9914;51.008;4.300;2023-06-10T13:23:47;34.90;83.90
19538;DHT22;9914;51.008;4.300;2023-06-10T13:26:14;35.20;82.90
19538;DHT22;9914;51.008;4.300;2023-06-10T13:28:40;35.00;82.30
19538;DHT22;9914;51.008;4.300;2023-06-10T13:31:05;34.60;83.30
19538;DHT22;9914;51.008;4.300;2023-06-10T13:33:31;34.40;84.00
19538;DHT22;9914;51.008;4.300;2023-06-10T13:35:56;34.00;83.90
19538;DHT22;9914;51.008;4.300;2023-06-10T13:38:22;34.00;83.60
19538;DHT22;9914;51.008;4.300;2023-06-10T13:40:48;33.60;84.30
19538;DHT22;9914;51.008;4.300;2023-06-10T13:43:13;33.80;85.00
19538;DHT22;9914;51.008;4.300;2023-06-10T13:45:39;34.00;84.50
19538;DHT22;9914;51.008;4.300;2023-06-10T13:48:06;34.20;83.60
19538;DHT22;9914;51.008;4.300;2023-06-10T13:50:31;34.50;84.20
19538;DHT22;9914;51.008;4.300;2023-06-10T13:52:57;34.60;84.50
19538;DHT22;9914;51.008;4.300;2023-06-10T13:55:23;34.80;84.40
19538;DHT22;9914;51.008;4.300;2023-06-10T13:57:50;34.80;83.70
19538;DHT22;9914;51.008;4.300;2023-06-10T14:00:16;35.10;82.70
19538;DHT22;9914;51.008;4.300;2023-06-10T14:02:42;34.90;81.50
19538;DHT22;9914;51.008;4.300;2023-06-10T14:05:07;34.90;80.00
19538;DHT22;9914;51.008;4.300;2023-06-10T14:07:34;35.00;80.50
19538;DHT22;9914;51.008;4.300;2023-06-10T14:09:59;35.30;81.70
19538;DHT22;9914;51.008;4.300;2023-06-10T14:12:25;35.60;81.00
19538;DHT22;9914;51.008;4.300;2023-06-10T14:14:51;35.40;81.90
19538;DHT22;9914;51.008;4.300;2023-06-10T14:17:16;35.30;82.00
19538;DHT22;9914;51.008;4.300;2023-06-10T14:19:42;35.10;81.10
19538;DHT22;9914;51.008;4.300;2023-06-10T14:22:07;35.10;82.10
19538;DHT22;9914;51.008;4.300;2023-06-10T14:24:34;35.10;82.50
19538;DHT22;9914;51.008;4.300;2023-06-10T14:27:00;34.80;81.10
19538;DHT22;9914;51.008;4.300;2023-06-10T14:29:26;34.80;80.80
19538;DHT22;9914;51.008;4.300;2023-06-10T14:31:54;34.80;81.20
19538;DHT22;9914;51.008;4.300;2023-06-10T14:34:20;34.90;81.10
19538;DHT22;9914;51.008;4.300;2023-06-10T14:36:46;34.80;81.90
19538;DHT22;9914;51.008;4.300;2023-06-10T14:39:11;34.70;82.90
19538;DHT22;9914;51.008;4.300;2023-06-10T14:41:37;34.60;81.90
19538;DHT22;9914;51.008;4.300;2023-06-10T14:44:03;34.70;81.40
19538;DHT22;9914;51.008;4.300;2023-06-10T14:46:28;34.90;81.10
19538;DHT22;9914;51.008;4.300;2023-06-10T14:48:54;35.10;81.60
19538;DHT22;9914;51.008;4.300;2023-06-10T14:51:19;35.10;80.10
19538;DHT22;9914;51.008;4.300;2023-06-10T14:53:46;35.30;81.20
19538;DHT22;9914;51.008;4.300;2023-06-10T14:56:12;35.60;80.70
19538;DHT22;9914;51.008;4.300;2023-06-10T14:58:38;37.10;78.60
19538;DHT22;9914;51.008;4.300;2023-06-10T15:01:04;38.60;75.90
19538;DHT22;9914;51.008;4.300;2023-06-10T15:03:29;39.50;74.40
19538;DHT22;9914;51.008;4.300;2023-06-10T15:05:55;40.00;73.70
19538;DHT22;9914;51.008;4.300;2023-06-10T15:08:21;41.10;72.10
19538;DHT22;9914;51.008;4.300;2023-06-10T15:10:46;42.10;71.00
19538;DHT22;9914;51.008;4.300;2023-06-10T15:13:14;42.70;68.60
19538;DHT22;9914;51.008;4.300;2023-06-10T15:15:39;41.60;68.10
19538;DHT22;9914;51.008;4.300;2023-06-10T15:18:05;41.30;68.20
19538;DHT22;9914;51.008;4.300;2023-06-10T15:20:30;41.00;68.90
19538;DHT22;9914;51.008;4.300;2023-06-10T15:22:56;41.50;67.90
19538;DHT22;9914;51.008;4.300;2023-06-10T15:25:22;42.20;67.10
19538;DHT22;9914;51.008;4.300;2023-06-10T15:27:47;43.20;66.80
19538;DHT22;9914;51.008;4.300;2023-06-10T15:30:13;42.70;66.70
19538;DHT22;9914;51.008;4.300;2023-06-10T15:32:39;42.80;66.50
19538;DHT22;9914;51.008;4.300;2023-06-10T15:35:05;42.80;65.90
19538;DHT22;9914;51.008;4.300;2023-06-10T15:37:31;43.10;64.80
19538;DHT22;9914;51.008;4.300;2023-06-10T15:39:56;43.30;63.40
19538;DHT22;9914;51.008;4.300;2023-06-10T15:42:22;43.10;62.70
19538;DHT22;9914;51.008;4.300;2023-06-10T15:44:48;43.50;62.30
19538;DHT22;9914;51.008;4.300;2023-06-10T15:47:14;43.30;62.20
19538;DHT22;9914;51.008;4.300;2023-06-10T15:49:40;44.20;61.90
19538;DHT22;9914;51.008;4.300;2023-06-10T15:52:06;44.10;62.10